Time;durP1;ratioP1;P1;durP2;ratioP2;P2;SDS_P1;SDS_P2;PMS_P1;PMS_P2;Temp;Humidity;BMP_temperature;BMP_pressure;BME280_temperature;BME280_humidity;BME280_pressure;Samples;Min_cycle;Max_cycle;Signal;HPM_P1;HPM_P2
2022/09/25 00:00:18;;;;;;;2.12;1.80;;;;;;;8.99;79.61;100226.83;1673247;85;21534;-64
2022/09/25 00:02:47;;;;;;;3.33;1.80;;;;;;;8.98;79.47;100223.25;1661217;86;21074;-64
2022/09/25 00:05:17;;;;;;;2.55;1.70;;;;;;;8.98;79.38;100229.23;1670861;84;21113;-63
2022/09/25 00:07:46;;;;;;;1.80;1.40;;;;;;;8.96;79.36;100232.68;1651217;87;21023;-64
2022/09/25 00:10:16;;;;;;;2.37;1.67;;;;;;;8.93;79.33;100236.64;1651401;87;21082;-63
2022/09/25 00:12:45;;;;;;;4.40;1.75;;;;;;;8.93;79.27;100231.70;1667817;86;21052;-64
2022/09/25 00:15:18;;;;;;;2.55;1.80;;;;;;;8.92;79.39;100228.12;1654891;85;21050;-62
2022/09/25 00:17:49;;;;;;;3.10;1.50;;;;;;;8.92;79.38;100230.00;1639931;85;21015;-63
2022/09/25 00:20:19;;;;;;;2.00;1.57;;;;;;;8.87;79.28;100222.38;1660432;85;21046;-64
2022/09/25 00:22:48;;;;;;;2.47;1.72;;;;;;;8.80;79.45;100231.86;1633822;86;21076;-65
2022/09/25 00:25:19;;;;;;;2.50;1.80;;;;;;;8.81;79.53;100240.37;1644394;86;21084;-63
2022/09/25 00:27:49;;;;;;;2.55;1.65;;;;;;;8.84;79.50;100233.69;1667710;86;21486;-64
2022/09/25 00:30:18;;;;;;;3.95;1.90;;;;;;;8.84;79.54;100232.32;1643090;86;21044;-63
2022/09/25 00:32:47;;;;;;;2.62;1.60;;;;;;;8.80;79.53;100238.69;1651227;85;21091;-64
2022/09/25 00:35:17;;;;;;;2.65;1.75;;;;;;;8.74;79.63;100239.97;1644191;86;21558;-64
2022/09/25 00:37:48;;;;;;;2.90;1.72;;;;;;;8.69;79.68;100243.78;1653579;85;21115;-65
2022/09/25 00:40:18;;;;;;;2.90;1.95;;;;;;;8.66;79.74;100240.06;1709697;84;21055;-63
2022/09/25 00:42:47;;;;;;;3.02;1.80;;;;;;;8.62;79.82;100242.33;1709976;84;21091;-64
2022/09/25 00:45:20;;;;;;;2.83;1.80;;;;;;;8.62;79.95;100238.75;1710256;84;21111;-62
2022/09/25 00:47:54;;;;;;;2.20;1.82;;;;;;;8.62;80.07;100240.11;1710327;84;21049;-63
2022/09/25 00:50:33;;;;;;;2.25;1.72;;;;;;;8.63;80.09;100234.98;1733961;82;21028;-65
2022/09/25 00:53:09;;;;;;;3.45;1.85;;;;;;;8.64;80.05;100238.05;1739861;82;21436;-65
2022/09/25 00:55:39;;;;;;;3.30;2.00;;;;;;;8.63;79.96;100240.45;1704950;84;21025;-64
2022/09/25 00:58:08;;;;;;;3.83;1.67;;;;;;;8.61;79.85;100239.27;1739900;82;21065;-65
2022/09/25 01:00:37;;;;;;;3.37;1.75;;;;;;;8.58;79.80;100233.66;1739351;82;21107;-64
2022/09/25 01:03:06;;;;;;;3.70;1.85;;;;;;;8.54;79.78;100236.45;1704039;84;21062;-65
2022/09/25 01:05:36;;;;;;;3.33;2.05;;;;;;;8.51;79.85;100238.19;1739316;82;20992;-64
2022/09/25 01:08:07;;;;;;;4.08;1.80;;;;;;;8.52;79.89;100235.78;1739913;82;21027;-63
2022/09/25 01:10:37;;;;;;;2.40;1.72;;;;;;;8.50;79.93;100231.03;1739477;82;21075;-64
2022/09/25 01:13:06;;;;;;;4.75;1.80;;;;;;;8.53;80.08;100237.48;1729690;82;21039;-63
2022/09/25 01:16:01;;;;;;;3.20;1.98;;;;;;;8.55;79.98;100234.05;1730508;82;21028;-62
2022/09/25 01:19:00;;;;;;;2.55;1.90;;;;;;;8.54;80.07;100229.62;1710105;83;21060;-63
2022/09/25 01:21:43;;;;;;;2.85;2.02;;;;;;;8.56;80.09;100234.38;1706078;82;21032;-63
2022/09/25 01:24:39;;;;;;;4.70;2.22;;;;;;;8.56;79.95;100230.80;1710403;84;21545;-63
2022/09/25 01:27:32;;;;;;;4.78;2.27;;;;;;;8.53;79.87;100233.91;1710315;83;21012;-64
2022/09/25 01:30:17;;;;;;;2.58;1.80;;;;;;;8.51;79.84;100242.28;1709888;82;21102;-63
2022/09/25 01:33:08;;;;;;;3.98;2.25;;;;;;;8.49;79.87;100236.16;1703369;84;21565;-62
2022/09/25 01:35:51;;;;;;;3.02;1.90;;;;;;;8.43;79.91;100232.79;1665490;86;21445;-63
2022/09/25 01:38:43;;;;;;;3.50;2.20;;;;;;;8.37;79.99;100234.91;1704255;82;21110;-65
2022/09/25 01:41:24;;;;;;;4.00;1.95;;;;;;;8.31;80.09;100235.62;1707838;83;21071;-64
2022/09/25 01:44:16;;;;;;;3.87;2.22;;;;;;;8.27;80.30;100236.52;1705820;84;21035;-63
2022/09/25 01:46:49;;;;;;;4.85;2.30;;;;;;;8.25;80.42;100235.01;1724883;83;21004;-64
2022/09/25 01:49:30;;;;;;;3.83;2.40;;;;;;;8.23;80.54;100236.56;1730843;83;21501;-64
2022/09/25 01:52:02;;;;;;;3.52;2.30;;;;;;;8.18;80.53;100232.69;1730870;83;21024;-64
2022/09/25 01:54:41;;;;;;;5.30;2.20;;;;;;;8.14;80.63;100232.73;1730652;83;21072;-62
2022/09/25 01:57:30;;;;;;;3.80;2.20;;;;;;;8.12;80.67;100233.44;1684044;85;21032;-64
2022/09/25 02:00:11;;;;;;;5.17;2.37;;;;;;;8.12;80.84;100236.17;1683102;84;21168;-63
2022/09/25 02:02:47;;;;;;;3.17;2.12;;;;;;;8.12;80.88;100236.17;1656636;86;21047;-63
2022/09/25 02:05:35;;;;;;;3.93;2.20;;;;;;;8.12;81.05;100229.34;1667845;85;21044;-63
2022/09/25 02:08:09;;;;;;;4.78;2.30;;;;;;;8.13;81.19;100229.67;1651461;87;21248;-64
2022/09/25 02:10:46;;;;;;;4.35;2.50;;;;;;;8.12;81.28;100238.89;1667880;84;21040;-64
2022/09/25 02:13:16;;;;;;;;;;;;;;;8.12;81.28;100238.89;1654269;87;21032;-62
2022/09/25 02:15:55;;;;;;;3.50;2.45;;;;;;;8.08;81.27;100234.33;1651329;86;20187;-64
2022/09/25 02:21:36;;;;;;;3.42;2.20;;;;;;;8.04;81.28;100235.73;1659865;85;21461;-63
2022/09/25 02:24:19;;;;;;;3.75;2.62;;;;;;;7.95;81.25;100239.57;1678707;85;21460;-63
2022/09/25 02:26:49;;;;;;;3.47;2.20;;;;;;;7.88;81.50;100246.80;1678644;85;21060;-63
2022/09/25 02:29:21;;;;;;;4.10;2.65;;;;;;;7.82;81.75;100241.56;1652468;85;21546;-62
2022/09/25 02:31:58;;;;;;;4.12;2.37;;;;;;;7.78;81.88;100236.63;1678875;85;21479;-62
2022/09/25 02:34:28;;;;;;;4.03;2.50;;;;;;;7.77;82.01;100240.38;1683971;85;21095;-65
2022/09/25 02:36:58;;;;;;;4.28;2.20;;;;;;;7.78;82.12;100242.08;1683895;85;21103;-63
2022/09/25 02:39:29;;;;;;;4.15;2.58;;;;;;;7.80;82.23;100244.11;1679431;85;21095;-63
2022/09/25 02:42:20;;;;;;;3.52;2.50;;;;;;;7.81;82.30;100246.69;1656749;85;21057;-63
2022/09/25 02:45:22;;;;;;;4.03;2.62;;;;;;;7.81;82.26;100243.95;1655209;87;21112;-63
2022/09/25 02:47:57;;;;;;;4.00;2.83;;;;;;;7.78;82.35;100240.72;1654977;87;21028;-62
2022/09/25 02:50:53;;;;;;;5.10;2.67;;;;;;;7.81;82.44;100245.84;1642432;85;21080;-63
2022/09/25 02:53:45;;;;;;;5.20;2.45;;;;;;;7.81;82.45;100247.20;1672323;84;21028;-63
2022/09/25 02:56:26;;;;;;;4.75;2.67;;;;;;;7.82;82.44;100241.56;1672473;86;21039;-65
2022/09/25 02:58:57;;;;;;;5.62;2.75;;;;;;;7.80;82.50;100238.17;1674971;85;21033;-63
2022/09/25 03:01:27;;;;;;;4.80;3.00;;;;;;;7.79;82.57;100240.53;1655369;85;21087;-64
2022/09/25 03:03:57;;;;;;;5.05;2.85;;;;;;;7.76;82.59;100239.53;1683828;85;21915;-63
2022/09/25 03:06:27;;;;;;;5.03;2.65;;;;;;;7.73;82.71;100244.51;1671672;85;21035;-63
2022/09/25 03:08:56;;;;;;;5.87;3.12;;;;;;;7.73;82.76;100236.33;1677126;85;21036;-63
2022/09/25 03:11:26;;;;;;;4.00;2.47;;;;;;;7.77;82.84;100243.96;1689231;85;21043;-63
2022/09/25 03:14:01;;;;;;;3.72;2.50;;;;;;;7.79;82.97;100239.69;1678913;85;21087;-63
2022/09/25 03:16:52;;;;;;;4.55;2.87;;;;;;;7.79;82.96;100232.35;1683818;85;21126;-62
2022/09/25 03:19:22;;;;;;;4.72;2.87;;;;;;;7.81;83.07;100228.95;1672795;86;21052;-65
2022/09/25 03:21:51;;;;;;;8.35;3.27;;;;;;;7.84;83.00;100235.92;1658503;85;21056;-62
2022/09/25 03:24:20;;;;;;;4.97;2.70;;;;;;;7.83;82.89;100240.53;1672530;84;21012;-64
2022/09/25 03:26:50;;;;;;;3.75;2.52;;;;;;;7.83;82.78;100241.89;1653349;87;21047;-62
2022/09/25 03:29:20;;;;;;;5.15;2.83;;;;;;;7.84;82.90;100242.73;1680298;85;20995;-63
2022/09/25 03:31:49;;;;;;;5.78;2.67;;;;;;;7.86;82.89;100246.98;1683887;85;21084;-63
2022/09/25 03:34:18;;;;;;;5.85;2.80;;;;;;;7.85;82.82;100241.19;1674886;84;21050;-64
2022/09/25 03:36:49;;;;;;;4.42;3.25;;;;;;;7.81;82.73;100253.50;1667760;86;21033;-65
2022/09/25 03:39:18;;;;;;;5.95;2.80;;;;;;;7.75;82.76;100266.48;1647591;86;21127;-64
2022/09/25 03:41:47;;;;;;;5.15;3.45;;;;;;;7.72;82.81;100257.30;1674170;85;21067;-67
2022/09/25 03:44:17;;;;;;;4.33;2.95;;;;;;;7.71;82.81;100262.42;1710385;84;21028;-63
2022/09/25 03:46:47;;;;;;;4.78;2.98;;;;;;;7.71;82.88;100265.14;1710424;84;21071;-64
2022/09/25 03:49:17;;;;;;;5.17;3.30;;;;;;;7.71;82.88;100259.69;1726363;82;21032;-64
2022/09/25 03:51:46;;;;;;;5.83;3.00;;;;;;;7.73;82.88;100259.51;1739901;82;21036;-64
2022/09/25 03:54:18;;;;;;;5.50;3.12;;;;;;;7.71;82.82;100259.69;1740025;82;21460;-63
2022/09/25 03:56:47;;;;;;;7.28;3.55;;;;;;;7.71;82.93;100261.05;1738786;82;21011;-64
2022/09/25 03:59:16;;;;;;;4.50;2.83;;;;;;;7.72;82.87;100260.54;1739799;82;21056;-63
2022/09/25 04:01:46;;;;;;;7.08;3.22;;;;;;;7.70;82.85;100261.23;1663816;84;21012;-64
2022/09/25 04:04:15;;;;;;;4.45;3.12;;;;;;;7.68;82.95;100257.33;1698555;84;21147;-63
2022/09/25 04:06:44;;;;;;;6.45;3.10;;;;;;;7.66;83.01;100270.30;1662753;86;21452;-62
2022/09/25 04:09:15;;;;;;;3.87;2.72;;;;;;;7.62;83.10;100271.17;1710595;82;21059;-63
2022/09/25 04:11:45;;;;;;;6.17;3.35;;;;;;;7.64;83.25;100275.09;1704597;84;21032;-62
2022/09/25 04:14:16;;;;;;;4.92;3.00;;;;;;;7.69;83.12;100267.20;1740067;82;21023;-65
2022/09/25 04:16:45;;;;;;;6.72;3.40;;;;;;;7.68;83.08;100271.48;1739621;82;21110;-64
2022/09/25 04:19:15;;;;;;;6.80;3.95;;;;;;;7.68;83.08;100274.20;1701668;84;21056;-64
2022/09/25 04:21:44;;;;;;;5.47;3.37;;;;;;;7.67;82.96;100270.63;1703789;82;21087;-63
2022/09/25 04:27:02;;;;;;;;;;;;;;;7.67;82.99;100280.17;1711827;82;21016;-62
2022/09/25 04:29:31;;;;;;;3.70;2.72;;;;;;;7.69;82.99;100273.17;1708948;84;20215;-64
2022/09/25 04:34:51;;;;;;;3.90;2.60;;;;;;;7.67;82.79;100278.81;1721712;82;21071;-65
2022/09/25 04:37:25;;;;;;;5.17;2.95;;;;;;;7.66;82.80;100285.81;1710698;83;21068;-64
2022/09/25 04:39:57;;;;;;;4.58;3.10;;;;;;;7.66;82.77;100283.94;1688952;84;21101;-63
2022/09/25 04:42:27;;;;;;;4.67;2.70;;;;;;;7.65;82.69;100286.33;1683392;85;21436;-64
2022/09/25 04:44:57;;;;;;;3.70;2.85;;;;;;;7.66;82.65;100281.20;1684207;84;21027;-63
2022/09/25 04:47:30;;;;;;;5.55;3.25;;;;;;;7.71;82.63;100284.23;1684171;85;21031;-63
2022/09/25 04:49:59;;;;;;;5.35;3.30;;;;;;;7.74;82.52;100274.84;1684062;85;21550;-65
2022/09/25 04:52:30;;;;;;;5.58;3.22;;;;;;;7.74;82.51;100275.69;1681495;85;21011;-64
2022/09/25 04:55:00;;;;;;;5.75;3.37;;;;;;;7.76;82.59;100282.33;1665331;85;21091;-65
2022/09/25 04:57:30;;;;;;;4.50;3.00;;;;;;;7.78;82.53;100279.75;1679911;85;21023;-64
2022/09/25 05:00:01;;;;;;;5.47;3.00;;;;;;;7.81;82.53;100280.78;1671224;85;21039;-64
2022/09/25 05:02:34;;;;;;;5.15;2.83;;;;;;;7.86;82.38;100289.27;1599420;87;21588;-64
2022/09/25 05:05:04;;;;;;;5.08;3.05;;;;;;;7.87;82.25;100295.05;1623694;87;21109;-63
2022/09/25 05:07:34;;;;;;;5.08;3.00;;;;;;;7.89;82.12;100292.14;1610867;88;21056;-64
2022/09/25 05:10:07;;;;;;;3.50;2.87;;;;;;;7.89;82.01;100288.89;1686228;85;21321;-65
2022/09/25 05:12:36;;;;;;;4.90;2.60;;;;;;;7.90;81.88;100292.47;1686170;85;21015;-63
2022/09/25 05:15:09;;;;;;;4.62;2.77;;;;;;;7.92;81.81;100293.14;1677312;85;21096;-64
2022/09/25 05:17:37;;;;;;;3.90;2.60;;;;;;;7.98;81.81;100302.47;1629463;88;21516;-64
2022/09/25 05:20:08;;;;;;;5.78;3.00;;;;;;;7.99;81.73;100290.52;1609294;88;21192;-65
2022/09/25 05:22:38;;;;;;;3.83;2.70;;;;;;;8.03;81.72;100298.67;1670928;85;21504;-63
2022/09/25 05:25:09;;;;;;;4.67;2.62;;;;;;;8.06;81.64;100307.34;1667726;85;21066;-64
2022/09/25 05:27:40;;;;;;;5.03;2.92;;;;;;;8.09;81.49;100308.85;1567951;90;21063;-63
2022/09/25 05:30:10;;;;;;;5.00;2.70;;;;;;;8.11;81.35;100306.27;1567616;91;21079;-65
2022/09/25 05:32:39;;;;;;;4.20;2.67;;;;;;;8.15;81.19;100313.57;1568069;91;21071;-64
2022/09/25 05:35:10;;;;;;;4.80;2.77;;;;;;;8.17;81.14;100305.53;1586287;88;21071;-65
2022/09/25 05:37:39;;;;;;;4.45;2.80;;;;;;;8.21;81.22;100312.31;1619031;88;21500;-65
2022/09/25 05:40:10;;;;;;;4.08;2.77;;;;;;;8.26;81.12;100307.15;1644069;85;21507;-63
2022/09/25 05:42:39;;;;;;;4.85;2.70;;;;;;;8.32;80.93;100306.08;1609347;88;21064;-64
2022/09/25 05:45:11;;;;;;;6.67;2.90;;;;;;;8.35;80.83;100303.86;1611405;85;21092;-64
2022/09/25 05:47:40;;;;;;;3.62;2.52;;;;;;;8.38;80.79;100305.37;1662709;85;21568;-65
2022/09/25 05:50:12;;;;;;;5.33;2.62;;;;;;;8.40;80.64;100304.14;1660418;85;21055;-64
2022/09/25 05:52:41;;;;;;;4.70;2.95;;;;;;;8.39;80.45;100303.81;1739373;82;21521;-63
2022/09/25 05:55:10;;;;;;;3.17;2.50;;;;;;;8.43;80.44;100309.23;1700220;82;21465;-67
2022/09/25 05:57:39;;;;;;;6.35;3.12;;;;;;;8.46;80.40;100305.32;1705036;83;21067;-64
2022/09/25 06:00:10;;;;;;;5.37;2.47;;;;;;;8.50;80.39;100300.66;1736845;82;21096;-64
2022/09/25 06:02:43;;;;;;;4.20;2.37;;;;;;;8.54;80.42;100306.08;1749482;82;21051;-65
2022/09/25 06:05:13;;;;;;;5.60;2.70;;;;;;;8.61;80.43;100306.17;1713085;84;21111;-65
2022/09/25 06:07:43;;;;;;;5.25;2.60;;;;;;;8.64;80.42;100306.33;1724385;82;21037;-63
2022/09/25 06:10:12;;;;;;;4.33;2.60;;;;;;;8.71;80.28;100312.20;1729734;82;21478;-64
2022/09/25 06:12:41;;;;;;;4.47;2.72;;;;;;;8.77;80.17;100311.98;1669590;85;21078;-63
2022/09/25 06:15:11;;;;;;;3.85;2.62;;;;;;;8.82;80.00;100311.74;1694005;82;21118;-66
2022/09/25 06:17:41;;;;;;;5.65;3.05;;;;;;;8.88;79.89;100311.50;1627460;86;21079;-65
2022/09/25 06:20:10;;;;;;;4.12;2.80;;;;;;;8.94;79.79;100314.00;1617334;86;21108;-65
2022/09/25 06:22:43;;;;;;;5.08;2.85;;;;;;;8.99;79.68;100311.02;1650349;85;21031;-64
2022/09/25 06:25:14;;;;;;;6.45;3.05;;;;;;;9.07;79.55;100316.39;1623194;88;21107;-65
2022/09/25 06:27:43;;;;;;;6.60;2.87;;;;;;;9.13;79.40;100312.92;1661312;85;21046;-66
2022/09/25 06:30:12;;;;;;;5.15;3.08;;;;;;;9.18;79.26;100318.67;1623815;87;21060;-65
2022/09/25 06:32:41;;;;;;;3.83;2.75;;;;;;;9.25;78.99;100313.28;1667013;85;21083;-65
2022/09/25 06:35:10;;;;;;;5.92;2.83;;;;;;;9.31;78.91;100321.23;1641195;83;21459;-64
2022/09/25 06:37:40;;;;;;;5.78;2.92;;;;;;;9.38;78.90;100318.91;1685308;85;21070;-64
2022/09/25 06:40:09;;;;;;;3.95;2.80;;;;;;;9.44;78.55;100319.51;1721279;82;21107;-65
2022/09/25 06:42:39;;;;;;;6.53;3.42;;;;;;;9.51;78.35;100322.33;1673024;85;21067;-63
2022/09/25 06:45:10;;;;;;;4.20;2.72;;;;;;;9.57;78.27;100320.19;1683331;85;21032;-65
2022/09/25 06:47:39;;;;;;;4.60;2.83;;;;;;;9.64;78.07;100326.58;1650619;86;21109;-64
2022/09/25 06:50:10;;;;;;;5.05;3.02;;;;;;;9.72;77.88;100320.13;1656137;86;21499;-64
2022/09/25 06:52:42;;;;;;;6.42;3.20;;;;;;;9.78;77.78;100324.86;1647118;86;21068;-65
2022/09/25 06:55:12;;;;;;;5.65;3.10;;;;;;;9.84;77.61;100323.56;1651425;86;21099;-66
2022/09/25 06:57:43;;;;;;;6.97;3.25;;;;;;;9.92;77.25;100323.95;1677988;85;21042;-63
2022/09/25 07:00:13;;;;;;;10.40;3.40;;;;;;;9.99;77.01;100321.28;1652708;85;21444;-66
2022/09/25 07:05:30;;;;;;;5.17;2.92;;;;;;;10.11;76.53;100316.97;1667839;85;21135;-66
2022/09/25 07:07:59;;;;;;;5.62;2.83;;;;;;;10.17;76.43;100318.92;1667737;86;21018;-68
2022/09/25 07:10:28;;;;;;;5.90;3.22;;;;;;;10.22;76.15;100313.73;1667989;85;21039;-67
2022/09/25 07:12:58;;;;;;;8.93;3.30;;;;;;;10.30;75.91;100319.06;1669563;85;21047;-66
2022/09/25 07:15:27;;;;;;;8.30;3.20;;;;;;;10.36;75.68;100322.37;1655814;85;21094;-66
2022/09/25 07:17:56;;;;;;;7.33;3.42;;;;;;;10.43;75.54;100314.25;1663479;86;21081;-67
2022/09/25 07:20:25;;;;;;;5.30;2.77;;;;;;;10.46;75.28;100313.84;1656206;86;21070;-68
2022/09/25 07:23:03;;;;;;;6.22;2.83;;;;;;;10.52;75.01;100309.47;1648573;86;21002;-69
2022/09/25 07:25:32;;;;;;;6.87;2.90;;;;;;;10.57;74.88;100310.56;1685816;85;21146;-68
2022/09/25 07:28:02;;;;;;;4.28;2.92;;;;;;;10.63;74.30;100312.50;1663032;86;21534;-65
2022/09/25 07:30:31;;;;;;;5.62;2.77;;;;;;;10.71;74.10;100320.56;1668332;85;21036;-68
2022/09/25 07:33:01;;;;;;;4.00;2.60;;;;;;;10.79;73.59;100316.81;1638929;85;21655;-65
2022/09/25 07:35:30;;;;;;;6.05;2.95;;;;;;;10.88;73.31;100313.39;1680585;85;21580;-67
2022/09/25 07:37:59;;;;;;;6.37;2.72;;;;;;;10.95;73.18;100315.13;1657524;86;21059;-68
2022/09/25 07:40:32;;;;;;;4.35;2.60;;;;;;;11.01;73.01;100307.98;1675093;85;21087;-66
2022/09/25 07:43:01;;;;;;;3.52;2.02;;;;;;;11.12;72.37;100315.66;1674827;84;21051;-69
2022/09/25 07:45:30;;;;;;;5.05;2.50;;;;;;;11.33;72.24;100300.98;1711405;84;21787;-67
2022/09/25 07:48:00;;;;;;;4.28;2.40;;;;;;;11.78;71.66;100306.88;1675122;84;21062;-68
2022/09/25 07:50:30;;;;;;;3.87;2.50;;;;;;;12.35;70.29;100303.56;1712107;83;21581;-67
2022/09/25 07:53:02;;;;;;;3.22;2.10;;;;;;;12.93;68.74;100307.84;1680732;85;21076;-66
2022/09/25 07:55:33;;;;;;;4.20;2.27;;;;;;;13.47;65.87;100304.74;1677252;84;21537;-67
2022/09/25 07:58:02;;;;;;;7.00;2.50;;;;;;;13.98;64.87;100307.12;1676438;84;21070;-67
2022/09/25 08:00:32;;;;;;;3.77;2.20;;;;;;;14.47;63.24;100295.36;1684901;85;21108;-66
2022/09/25 08:03:01;;;;;;;5.28;2.47;;;;;;;14.91;62.16;100298.42;1678907;84;21082;-67
2022/09/25 08:05:32;;;;;;;4.83;2.35;;;;;;;15.26;60.79;100299.22;1700733;84;21094;-66
2022/09/25 08:08:02;;;;;;;3.05;2.20;;;;;;;15.59;59.10;100298.83;1658775;85;21055;-67
2022/09/25 08:10:32;;;;;;;4.00;1.98;;;;;;;15.87;56.72;100301.86;1689790;84;21063;-67
2022/09/25 08:13:01;;;;;;;3.45;1.95;;;;;;;16.13;55.60;100295.08;1708856;83;21083;-66
2022/09/25 08:15:30;;;;;;;6.42;2.37;;;;;;;16.41;54.27;100290.30;1674402;85;21047;-67
2022/09/25 08:17:59;;;;;;;2.12;1.87;;;;;;;16.61;52.91;100290.80;1653263;84;22191;-67
2022/09/25 08:20:29;;;;;;;3.90;1.85;;;;;;;16.75;52.62;100292.27;1684501;85;21036;-66
2022/09/25 08:22:59;;;;;;;4.22;1.82;;;;;;;16.95;52.07;100299.39;1687247;84;21044;-66
2022/09/25 08:25:28;;;;;;;3.42;1.82;;;;;;;17.04;50.51;100293.78;1676769;85;21107;-66
2022/09/25 08:27:57;;;;;;;4.53;1.80;;;;;;;17.13;49.94;100297.86;1659928;84;21035;-65
2022/09/25 08:30:26;;;;;;;5.40;1.90;;;;;;;17.15;50.07;100291.53;1673459;84;21455;-67
2022/09/25 08:32:55;;;;;;;3.33;1.92;;;;;;;17.17;49.80;100289.91;1708812;84;21031;-68
2022/09/25 08:35:26;;;;;;;2.55;1.60;;;;;;;17.18;48.46;100297.97;1670049;84;21028;-68
2022/09/25 08:37:57;;;;;;;3.17;2.25;;;;;;;17.21;49.17;100292.48;1681482;83;21103;-66
2022/09/25 08:40:27;;;;;;;2.95;1.82;;;;;;;17.27;49.22;100290.97;1667034;85;21043;-67
2022/09/25 08:42:56;;;;;;;2.65;2.00;;;;;;;17.28;48.60;100289.88;1659894;85;21463;-67
2022/09/25 08:51:15;;;;;;;2.00;1.60;;;;;;;16.82;48.37;100287.16;1672193;85;21039;-67
2022/09/25 08:53:45;;;;;;;3.50;1.87;;;;;;;16.57;47.73;100285.44;1689792;84;21098;-66
2022/09/25 08:56:14;;;;;;;3.45;1.55;;;;;;;16.24;48.14;100290.12;1664470;85;21072;-67
2022/09/25 08:59:02;;;;;;;4.42;1.82;;;;;;;16.02;49.02;100289.83;1688361;84;21495;-68
2022/09/25 09:01:43;;;;;;;2.83;1.50;;;;;;;15.86;49.11;100282.22;1669990;86;21452;-66
2022/09/25 09:04:25;;;;;;;2.70;1.50;;;;;;;15.67;49.78;100275.91;1669809;86;21027;-68
2022/09/25 09:06:59;;;;;;;3.25;1.60;;;;;;;15.55;50.15;100282.69;1670105;86;21095;-67
2022/09/25 09:09:46;;;;;;;2.12;1.45;;;;;;;15.42;49.12;100280.11;1609822;86;21155;-66
2022/09/25 09:12:23;;;;;;;1.60;1.30;;;;;;;15.30;50.32;100283.88;1669810;86;21063;-67
2022/09/25 09:14:57;;;;;;;6.05;1.52;;;;;;;15.25;50.95;100268.02;1669991;86;21445;-69
2022/09/25 09:17:27;;;;;;;2.42;1.30;;;;;;;15.21;50.91;100270.39;1658948;85;21513;-67
2022/09/25 09:20:07;;;;;;;3.17;1.40;;;;;;;15.17;50.08;100272.47;1670960;86;21060;-68
2022/09/25 09:22:41;;;;;;;2.50;1.30;;;;;;;15.07;49.98;100261.97;1669364;86;21073;-68
2022/09/25 09:25:30;;;;;;;4.37;1.52;;;;;;;14.99;49.80;100264.20;1669847;84;21028;-67
2022/09/25 09:28:37;;;;;;;1.75;1.30;;;;;;;14.93;50.14;100258.19;1665423;85;21051;-68
2022/09/25 09:31:30;;;;;;;2.55;1.40;;;;;;;14.89;50.27;100262.78;1681475;84;21069;-68
2022/09/25 09:34:18;;;;;;;1.52;1.20;;;;;;;14.90;50.46;100262.25;1667089;85;21111;-67
2022/09/25 09:36:54;;;;;;;2.85;1.52;;;;;;;14.90;50.18;100252.05;1665555;84;21096;-69
2022/09/25 09:39:46;;;;;;;1.47;1.30;;;;;;;14.91;50.99;100251.52;1676156;85;21011;-68
2022/09/25 09:42:35;;;;;;;2.12;1.30;;;;;;;14.99;50.97;100252.62;1555078;91;21123;-69
2022/09/25 09:45:20;;;;;;;1.98;1.40;;;;;;;15.06;50.62;100251.16;1553488;91;21101;-67
2022/09/25 09:48:09;;;;;;;2.22;1.37;;;;;;;15.06;50.65;100249.78;1631788;85;21100;-68
2022/09/25 09:50:53;;;;;;;2.85;1.70;;;;;;;15.03;50.56;100249.71;1737103;82;21491;-68
2022/09/25 09:53:51;;;;;;;3.17;1.35;;;;;;;14.99;50.83;100249.86;1713119;84;21491;-67
2022/09/25 09:56:29;;;;;;;2.15;1.40;;;;;;;15.02;49.79;100245.80;1711826;83;21154;-67
2022/09/25 09:59:14;;;;;;;3.35;1.30;;;;;;;15.02;49.79;100245.80;1669102;84;21070;-68
2022/09/25 10:01:44;;;;;;;3.95;1.50;;;;;;;15.07;50.08;100241.28;1725213;82;21522;-67
2022/09/25 10:04:23;;;;;;;4.83;1.60;;;;;;;15.19;50.15;100252.38;1705171;82;20987;-68
2022/09/25 10:07:02;;;;;;;1.50;1.10;;;;;;;15.27;49.26;100238.27;1694780;83;21625;-68
2022/09/25 10:09:32;;;;;;;2.10;1.20;;;;;;;15.35;49.38;100241.23;1662960;85;21027;-68
2022/09/25 10:12:08;;;;;;;1.65;1.40;;;;;;;15.37;48.70;100243.23;1742960;82;21047;-67
2022/09/25 10:14:42;;;;;;;1.12;1.00;;;;;;;15.35;48.78;100237.94;1689843;83;21028;-65
2022/09/25 10:17:10;;;;;;;1.85;1.20;;;;;;;15.38;48.95;100225.05;1707386;82;21123;-68
2022/09/25 10:19:52;;;;;;;2.25;1.00;;;;;;;15.43;48.42;100233.47;1678592;84;21049;-68
2022/09/25 10:22:36;;;;;;;2.15;1.10;;;;;;;15.46;47.37;100235.77;1735814;82;21474;-68
2022/09/25 10:25:06;;;;;;;1.95;1.20;;;;;;;15.49;47.88;100234.45;1712463;82;21091;-68
2022/09/25 10:27:44;;;;;;;1.90;1.15;;;;;;;15.51;47.03;100223.48;1687646;83;21059;-67
2022/09/25 10:30:19;;;;;;;1.42;1.12;;;;;;;15.54;47.39;100230.45;1742079;82;21075;-70
2022/09/25 10:33:05;;;;;;;4.55;2.15;;;;;;;15.60;47.22;100226.78;1710531;82;21524;-68
2022/09/25 10:35:42;;;;;;;1.63;1.10;;;;;;;15.66;47.30;100230.02;1675697;85;21060;-68
2022/09/25 10:38:28;;;;;;;5.87;1.47;;;;;;;15.67;46.72;100228.10;1672805;85;21103;-68
2022/09/25 10:41:11;;;;;;;1.45;1.10;;;;;;;15.68;46.57;100226.48;1667604;85;21055;-67
2022/09/25 10:43:59;;;;;;;1.92;1.27;;;;;;;15.70;47.06;100218.80;1723963;82;21476;-67
2022/09/25 10:52:20;;;;;;;1.40;1.10;;;;;;;15.81;46.20;100225.44;1678100;84;21056;-70
2022/09/25 10:54:51;;;;;;;3.90;0.88;;;;;;;15.82;46.27;100228.50;1667029;85;21067;-69
2022/09/25 10:57:34;;;;;;;3.27;1.10;;;;;;;15.79;46.50;100220.69;1679810;84;21118;-67
2022/09/25 11:00:09;;;;;;;2.62;1.17;;;;;;;15.73;46.13;100218.88;1670749;86;21039;-68
2022/09/25 11:02:40;;;;;;;3.55;1.10;;;;;;;15.67;46.38;100213.75;1629284;86;21079;-68
2022/09/25 11:05:21;;;;;;;1.72;1.17;;;;;;;15.63;46.12;100207.55;1669919;84;21008;-64
2022/09/25 11:07:53;;;;;;;1.98;1.20;;;;;;;15.57;46.40;100205.67;1666241;85;21624;-68
2022/09/25 11:10:33;;;;;;;2.45;1.00;;;;;;;15.52;46.68;100209.98;1663880;84;21067;-67
2022/09/25 11:13:09;;;;;;;1.80;1.15;;;;;;;15.49;47.03;100198.02;1670878;86;21007;-69
2022/09/25 11:15:40;;;;;;;4.33;1.10;;;;;;;;;;1669528;85;21004;-67
2022/09/25 11:18:09;;;;;;;2.30;1.05;;;;;;;15.58;47.20;100193.58;1688021;84;21515;-69
2022/09/25 11:20:41;;;;;;;2.83;1.22;;;;;;;15.64;46.88;100193.51;1625693;85;21123;-67
2022/09/25 11:23:42;;;;;;;3.67;1.10;;;;;;;15.66;46.24;100195.50;1645207;84;22150;-69
2022/09/25 11:26:25;;;;;;;1.12;1.00;;;;;;;15.64;46.29;100195.42;1652809;85;21450;-68
2022/09/25 11:29:18;;;;;;;4.05;1.30;;;;;;;15.61;46.16;100208.33;1661814;85;21123;-68
2022/09/25 11:32:00;;;;;;;1.40;0.98;;;;;;;15.59;45.74;100191.12;1670118;86;21122;-67
2022/09/25 11:34:56;;;;;;;1.67;0.93;;;;;;;15.58;45.38;100191.66;1669671;85;21076;-67
2022/09/25 11:37:52;;;;;;;1.57;1.17;;;;;;;15.57;45.07;100194.62;1667817;86;21040;-68
2022/09/25 11:43:43;;;;;;;1.82;1.27;;;;;;;15.47;45.43;100187.75;1697391;84;21104;-67
2022/09/25 11:46:27;;;;;;;1.72;1.10;;;;;;;15.43;45.81;100188.45;1633262;85;21036;-68
2022/09/25 11:49:30;;;;;;;2.90;1.20;;;;;;;15.38;46.13;100182.80;1657706;84;21055;-67
2022/09/25 11:52:26;;;;;;;3.15;1.30;;;;;;;15.35;46.47;100179.97;1658981;85;21080;-67
2022/09/25 11:55:38;;;;;;;2.33;1.20;;;;;;;15.34;46.92;100178.28;1670263;85;21785;-68
2022/09/25 11:58:52;;;;;;;2.77;1.12;;;;;;;15.35;46.69;100180.50;1656211;85;21674;-68
2022/09/25 12:01:32;;;;;;;2.27;1.27;;;;;;;15.31;46.93;100182.89;1659556;84;21088;-67
2022/09/25 12:04:19;;;;;;;2.77;1.27;;;;;;;15.29;47.38;100185.04;1670010;86;21032;-66
2022/09/25 12:07:16;;;;;;;2.10;1.30;;;;;;;15.31;47.82;100187.03;1671938;84;21005;-67
2022/09/25 12:10:13;;;;;;;2.67;1.30;;;;;;;15.39;47.76;100184.48;1682556;85;21470;-67
2022/09/25 12:13:03;;;;;;;3.10;1.42;;;;;;;15.46;47.70;100180.55;1676133;84;21475;-66
2022/09/25 12:15:53;;;;;;;4.12;1.50;;;;;;;15.49;47.05;100183.37;1660550;85;21107;-67
2022/09/25 12:19:02;;;;;;;1.20;0.95;;;;;;;15.50;46.94;100184.52;1671064;84;21490;-68
2022/09/25 12:21:48;;;;;;;4.03;1.30;;;;;;;15.50;46.51;100192.80;1663241;86;21037;-68
2022/09/25 12:24:50;;;;;;;2.35;1.22;;;;;;;15.50;46.47;100186.44;1660363;85;21055;-66
2022/09/25 12:27:25;;;;;;;2.87;1.40;;;;;;;15.50;46.70;100175.39;1655065;85;21110;-69
2022/09/25 12:30:20;;;;;;;1.95;1.35;;;;;;;15.57;47.07;100178.89;1680920;84;21035;-68
2022/09/25 12:33:13;;;;;;;1.72;1.10;;;;;;;15.63;47.04;100178.55;1674221;85;21104;-66
2022/09/25 12:36:04;;;;;;;3.05;1.37;;;;;;;15.66;46.90;100184.45;1671237;84;21023;-69